Hovedside
METAR-TAF:

METAR-TAF

Lufthavner :

Fuerteventura lufthavn

Fuerteventura, Spania

breddegrad: 28-27N, lengdegrad: 013-52W, høyde over havet: 22 m

Gjeldene værobservasjon

Denne rapporten ble laget for 35 minutter siden, klokken 10:30 UTC
Vind 12 kt fra Øst-nordøst
Temperatur 22°C
Luftfuktighet 60%
Trykk 1017 hPa
Sikt 10 km eller mer
Spredte skyer i en høyde av 3300 ft

METAR: GCFV 191030Z 06012KT 9999 SCT033 22/14 Q1017

Tid: 12:05 (11:05 UTC)

Varsel

Denne rapporten ble laget for 3 timer og 5 minutter siden, klokken 08:00 UTC
Varsel gyldig fra 19. klokken 09 UTC til 20. klokken 09 UTC
Vind 13 kt fra Øst-nordøst
Sikt 10 km eller mer
Få skyer i en høyde av 3000 ft
Blir
fra 19. klokken 18 UTC til 19. klokken 20 UTC
Vind 9 kt fra Nord

TAF: GCFV 190800Z 1909/2009 06013KT 9999 FEW030 TX24/1914Z TN17/2006Z BECMG 1918/1920 36009KT

Værobservasjoner og værvarsel for over 4000 flyplasser (METAR- og TAF-rapporter).

Tilgjengelige stasjoner er representert av de røde og gule prikkene på kartet.

Hold musepekeren over prikken for å se navnet på stasjonen.

Klikk så for å se værobservasjoner og -varsler.

For å forandre kartet kan du klikke på den grønne knappen med svart kryss for å zoome inn, på den grønne knappen med strek for å zoome ut, eller på de grønne pilene for å se tilstøtende kart.


METAR-TAF: